sensor_id;sensor_type;location;lat;lon;timestamp;pressure;altitude;pressure_sealevel;temperature;humidity
49461;BME280;35355;49.198;-0.368;2023-07-16T00:02:24;100530.53;;;19.40;50.79
49461;BME280;35355;49.198;-0.368;2023-07-16T00:04:50;100526.63;;;19.41;50.82
49461;BME280;35355;49.198;-0.368;2023-07-16T00:07:15;100532.97;;;19.42;50.92
49461;BME280;35355;49.198;-0.368;2023-07-16T00:09:41;100536.06;;;19.40;51.04
49461;BME280;35355;49.198;-0.368;2023-07-16T00:12:06;100533.63;;;19.39;51.27
49461;BME280;35355;49.198;-0.368;2023-07-16T00:14:32;100535.88;;;19.37;51.41
49461;BME280;35355;49.198;-0.368;2023-07-16T00:16:58;100536.53;;;19.34;51.52
49461;BME280;35355;49.198;-0.368;2023-07-16T00:19:23;100539.63;;;19.32;51.55
49461;BME280;35355;49.198;-0.368;2023-07-16T00:21:48;100542.72;;;19.31;51.76
49461;BME280;35355;49.198;-0.368;2023-07-16T00:24:14;100534.59;;;19.25;51.85
49461;BME280;35355;49.198;-0.368;2023-07-16T00:26:39;100532.81;;;19.21;52.00
49461;BME280;35355;49.198;-0.368;2023-07-16T00:29:05;100540.78;;;19.22;52.25
49461;BME280;35355;49.198;-0.368;2023-07-16T00:31:30;100542.25;;;19.20;52.45
49461;BME280;35355;49.198;-0.368;2023-07-16T00:33:56;100536.25;;;19.18;52.13
49461;BME280;35355;49.198;-0.368;2023-07-16T00:36:21;100541.59;;;19.23;52.55
49461;BME280;35355;49.198;-0.368;2023-07-16T00:38:46;100537.69;;;19.24;52.53
49461;BME280;35355;49.198;-0.368;2023-07-16T00:41:15;100545.16;;;19.23;52.55
49461;BME280;35355;49.198;-0.368;2023-07-16T00:43:41;100544.69;;;19.21;52.70
49461;BME280;35355;49.198;-0.368;2023-07-16T00:46:08;100550.88;;;19.18;52.89
49461;BME280;35355;49.198;-0.368;2023-07-16T00:48:34;100540.13;;;19.17;53.02
49461;BME280;35355;49.198;-0.368;2023-07-16T00:51:01;100547.78;;;19.20;52.98
49461;BME280;35355;49.198;-0.368;2023-07-16T00:53:28;100541.78;;;19.18;53.16
49461;BME280;35355;49.198;-0.368;2023-07-16T00:55:54;100549.09;;;19.22;53.29
49461;BME280;35355;49.198;-0.368;2023-07-16T00:58:19;100548.13;;;19.27;53.26
49461;BME280;35355;49.198;-0.368;2023-07-16T01:00:45;100541.41;;;19.28;53.34
49461;BME280;35355;49.198;-0.368;2023-07-16T01:03:12;100538.66;;;19.28;53.25
49461;BME280;35355;49.198;-0.368;2023-07-16T01:09:02;100539.16;;;19.21;52.80
49461;BME280;35355;49.198;-0.368;2023-07-16T01:11:28;100544.84;;;19.25;53.46
49461;BME280;35355;49.198;-0.368;2023-07-16T01:13:55;100547.59;;;19.25;53.68
49461;BME280;35355;49.198;-0.368;2023-07-16T01:16:24;100545.34;;;19.27;53.80
49461;BME280;35355;49.198;-0.368;2023-07-16T01:18:49;100545.34;;;19.27;53.63
49461;BME280;35355;49.198;-0.368;2023-07-16T01:21:20;100552.19;;;19.30;53.82
49461;BME280;35355;49.198;-0.368;2023-07-16T01:26:45;100549.91;;;19.32;53.73
49461;BME280;35355;49.198;-0.368;2023-07-16T01:31:55;100536.53;;;19.34;53.78
49461;BME280;35355;49.198;-0.368;2023-07-16T01:34:22;100538.03;;;19.31;54.04
49461;BME280;35355;49.198;-0.368;2023-07-16T01:36:49;100536.53;;;19.34;54.21
49461;BME280;35355;49.198;-0.368;2023-07-16T01:39:15;100540.63;;;19.36;54.17
49461;BME280;35355;49.198;-0.368;2023-07-16T01:41:40;100545.03;;;19.37;54.29
49461;BME280;35355;49.198;-0.368;2023-07-16T01:44:05;100545.03;;;19.37;54.22
49461;BME280;35355;49.198;-0.368;2023-07-16T01:46:31;100545.03;;;19.37;54.46
49461;BME280;35355;49.198;-0.368;2023-07-16T01:48:57;100539.81;;;19.36;54.55
49461;BME280;35355;49.198;-0.368;2023-07-16T01:51:22;100541.28;;;19.33;54.76
49461;BME280;35355;49.198;-0.368;2023-07-16T01:53:47;100535.88;;;19.28;54.97
49461;BME280;35355;49.198;-0.368;2023-07-16T01:56:13;100540.81;;;19.31;54.96
49461;BME280;35355;49.198;-0.368;2023-07-16T01:58:39;100544.38;;;19.32;54.90
49461;BME280;35355;49.198;-0.368;2023-07-16T02:01:04;100544.38;;;19.32;54.99
49461;BME280;35355;49.198;-0.368;2023-07-16T02:03:29;100544.03;;;19.33;55.08
49461;BME280;35355;49.198;-0.368;2023-07-16T02:05:55;100543.25;;;19.33;55.13
49461;BME280;35355;49.198;-0.368;2023-07-16T02:08:20;100535.41;;;19.26;55.10
49461;BME280;35355;49.198;-0.368;2023-07-16T02:10:49;100537.19;;;19.31;54.99
49461;BME280;35355;49.198;-0.368;2023-07-16T02:13:15;100549.09;;;19.31;55.24
49461;BME280;35355;49.198;-0.368;2023-07-16T02:15:41;100545.16;;;19.32;55.06
49461;BME280;35355;49.198;-0.368;2023-07-16T02:18:07;100540.94;;;19.26;55.30
49461;BME280;35355;49.198;-0.368;2023-07-16T02:20:32;100557.41;;;19.31;55.25
49461;BME280;35355;49.198;-0.368;2023-07-16T02:22:58;100542.25;;;19.28;55.23
49461;BME280;35355;49.198;-0.368;2023-07-16T02:25:23;100545.81;;;19.29;55.32
49461;BME280;35355;49.198;-0.368;2023-07-16T02:27:49;100528.25;;;19.25;55.38
49461;BME280;35355;49.198;-0.368;2023-07-16T02:30:17;100547.28;;;19.26;55.29
49461;BME280;35355;49.198;-0.368;2023-07-16T02:32:43;100549.09;;;19.31;55.71
49461;BME280;35355;49.198;-0.368;2023-07-16T02:35:09;100548.25;;;19.31;55.54
49461;BME280;35355;49.198;-0.368;2023-07-16T02:37:35;100542.06;;;19.25;55.55
49461;BME280;35355;49.198;-0.368;2023-07-16T02:40:00;100546.00;;;19.24;55.67
49461;BME280;35355;49.198;-0.368;2023-07-16T02:42:25;100548.13;;;19.27;55.72
49461;BME280;35355;49.198;-0.368;2023-07-16T02:44:51;100548.13;;;19.27;55.83
49461;BME280;35355;49.198;-0.368;2023-07-16T02:47:16;100540.94;;;19.26;55.82
49461;BME280;35355;49.198;-0.368;2023-07-16T02:49:42;100543.38;;;19.27;55.84
49461;BME280;35355;49.198;-0.368;2023-07-16T02:52:07;100545.03;;;19.28;55.86
49461;BME280;35355;49.198;-0.368;2023-07-16T02:54:35;100550.22;;;19.30;55.87
49461;BME280;35355;49.198;-0.368;2023-07-16T02:57:01;100553.81;;;19.31;55.88
49461;BME280;35355;49.198;-0.368;2023-07-16T02:59:26;100548.25;;;19.31;55.84
49461;BME280;35355;49.198;-0.368;2023-07-16T03:01:52;100550.22;;;19.30;55.95
49461;BME280;35355;49.198;-0.368;2023-07-16T03:04:19;100554.44;;;19.27;55.92
49461;BME280;35355;49.198;-0.368;2023-07-16T03:06:44;100557.72;;;19.30;55.92
49461;BME280;35355;49.198;-0.368;2023-07-16T03:09:10;100561.63;;;19.28;56.08
49461;BME280;35355;49.198;-0.368;2023-07-16T03:11:35;100556.41;;;19.27;55.92
49461;BME280;35355;49.198;-0.368;2023-07-16T03:14:01;100563.09;;;19.26;56.10
49461;BME280;35355;49.198;-0.368;2023-07-16T03:16:26;100559.84;;;19.24;56.18
49461;BME280;35355;49.198;-0.368;2023-07-16T03:18:53;100558.19;;;19.23;56.15
49461;BME280;35355;49.198;-0.368;2023-07-16T03:21:18;100566.97;;;19.25;56.08
49461;BME280;35355;49.198;-0.368;2023-07-16T03:23:43;100567.81;;;19.25;56.24
49461;BME280;35355;49.198;-0.368;2023-07-16T03:26:09;100568.13;;;19.24;56.29
49461;BME280;35355;49.198;-0.368;2023-07-16T03:28:34;100566.19;;;19.24;56.26
49461;BME280;35355;49.198;-0.368;2023-07-16T03:30:59;100562.09;;;19.22;56.41
49461;BME280;35355;49.198;-0.368;2023-07-16T03:33:25;100567.63;;;19.22;56.39
49461;BME280;35355;49.198;-0.368;2023-07-16T03:35:51;100565.84;;;19.17;56.42
49461;BME280;35355;49.198;-0.368;2023-07-16T03:38:16;100560.31;;;19.17;56.49
49461;BME280;35355;49.198;-0.368;2023-07-16T03:40:48;100580.00;;;19.16;56.06
49461;BME280;35355;49.198;-0.368;2023-07-16T03:43:17;100575.28;;;19.16;56.38
49461;BME280;35355;49.198;-0.368;2023-07-16T03:45:43;100572.81;;;19.15;56.49
49461;BME280;35355;49.198;-0.368;2023-07-16T03:48:09;100579.19;;;19.15;56.67
49461;BME280;35355;49.198;-0.368;2023-07-16T03:50:35;100581.13;;;19.15;56.53
49461;BME280;35355;49.198;-0.368;2023-07-16T03:53:01;100585.53;;;19.16;56.58
49461;BME280;35355;49.198;-0.368;2023-07-16T03:55:28;100592.53;;;19.13;56.54
49461;BME280;35355;49.198;-0.368;2023-07-16T03:57:54;100589.13;;;19.07;56.47
49461;BME280;35355;49.198;-0.368;2023-07-16T04:00:19;100595.13;;;19.09;56.81
49461;BME280;35355;49.198;-0.368;2023-07-16T04:02:45;100586.97;;;19.04;56.68
49461;BME280;35355;49.198;-0.368;2023-07-16T04:05:10;100590.25;;;19.06;56.77
49461;BME280;35355;49.198;-0.368;2023-07-16T04:07:36;100587.28;;;19.03;56.70
49461;BME280;35355;49.198;-0.368;2023-07-16T04:10:02;100581.59;;;18.99;56.81
49461;BME280;35355;49.198;-0.368;2023-07-16T04:12:27;100590.72;;;19.00;56.81
49461;BME280;35355;49.198;-0.368;2023-07-16T04:14:57;100591.03;;;18.98;56.76
49461;BME280;35355;49.198;-0.368;2023-07-16T04:17:24;100598.19;;;18.99;56.99
49461;BME280;35355;49.198;-0.368;2023-07-16T04:19:49;100604.53;;;19.00;57.17
49461;BME280;35355;49.198;-0.368;2023-07-16T04:22:15;100610.91;;;19.00;57.02
49461;BME280;35355;49.198;-0.368;2023-07-16T04:24:40;100604.72;;;19.03;57.11
49461;BME280;35355;49.198;-0.368;2023-07-16T04:27:05;100608.63;;;19.02;57.02
49461;BME280;35355;49.198;-0.368;2023-07-16T04:29:31;100606.97;;;19.01;57.16
49461;BME280;35355;49.198;-0.368;2023-07-16T04:31:57;100608.63;;;19.02;57.22
49461;BME280;35355;49.198;-0.368;2023-07-16T04:34:22;100626.53;;;19.05;57.00
49461;BME280;35355;49.198;-0.368;2023-07-16T04:36:47;100622.44;;;19.02;57.23
49461;BME280;35355;49.198;-0.368;2023-07-16T04:39:13;100627.66;;;19.04;57.33
49461;BME280;35355;49.198;-0.368;2023-07-16T04:41:39;100629.13;;;19.01;57.23
49461;BME280;35355;49.198;-0.368;2023-07-16T04:44:05;100636.63;;;19.09;57.21
49461;BME280;35355;49.198;-0.368;2023-07-16T04:46:31;100627.34;;;19.05;57.14
49461;BME280;35355;49.198;-0.368;2023-07-16T04:48:56;100639.72;;;19.08;57.31
49461;BME280;35355;49.198;-0.368;2023-07-16T04:51:22;100640.53;;;19.08;57.19
49461;BME280;35355;49.198;-0.368;2023-07-16T04:53:48;100642.97;;;19.10;57.18
49461;BME280;35355;49.198;-0.368;2023-07-16T04:56:14;100649.81;;;19.13;57.29
49461;BME280;35355;49.198;-0.368;2023-07-16T04:58:41;100645.59;;;19.15;57.21
49461;BME280;35355;49.198;-0.368;2023-07-16T05:01:08;100643.47;;;19.03;57.11
49461;BME280;35355;49.198;-0.368;2023-07-16T05:03:33;100646.06;;;19.08;57.18
49461;BME280;35355;49.198;-0.368;2023-07-16T05:05:59;100658.13;;;19.13;57.38
49461;BME280;35355;49.198;-0.368;2023-07-16T05:08:24;100644.75;;;19.06;57.66
49461;BME280;35355;49.198;-0.368;2023-07-16T05:10:50;100659.75;;;19.14;57.26
49461;BME280;35355;49.198;-0.368;2023-07-16T05:13:15;100670.81;;;19.14;57.27
49461;BME280;35355;49.198;-0.368;2023-07-16T05:15:43;100673.25;;;19.15;57.32
49461;BME280;35355;49.198;-0.368;2023-07-16T05:18:09;100670.19;;;19.17;57.73
49461;BME280;35355;49.198;-0.368;2023-07-16T05:20:34;100665.28;;;19.14;57.37
49461;BME280;35355;49.198;-0.368;2023-07-16T05:23:00;100673.44;;;19.19;57.55
49461;BME280;35355;49.198;-0.368;2023-07-16T05:25:25;100681.09;;;19.22;57.59
49461;BME280;35355;49.198;-0.368;2023-07-16T05:27:51;100682.41;;;19.24;57.52
49461;BME280;35355;49.198;-0.368;2023-07-16T05:30:16;100680.09;;;19.26;57.63
49461;BME280;35355;49.198;-0.368;2023-07-16T05:32:42;100685.31;;;19.28;57.32
49461;BME280;35355;49.198;-0.368;2023-07-16T05:35:07;100680.94;;;19.27;57.42
49461;BME280;35355;49.198;-0.368;2023-07-16T05:37:33;100688.09;;;19.28;57.41
49461;BME280;35355;49.198;-0.368;2023-07-16T05:39:58;100694.63;;;19.32;57.60
49461;BME280;35355;49.198;-0.368;2023-07-16T05:42:24;100696.25;;;19.33;57.43
49461;BME280;35355;49.198;-0.368;2023-07-16T05:44:49;100703.44;;;19.34;57.42
49461;BME280;35355;49.198;-0.368;2023-07-16T05:47:15;100701.44;;;19.26;57.45
49461;BME280;35355;49.198;-0.368;2023-07-16T05:49:40;100708.09;;;19.25;57.51
49461;BME280;35355;49.198;-0.368;2023-07-16T05:52:06;100712.69;;;19.21;57.56
49461;BME280;35355;49.198;-0.368;2023-07-16T05:54:31;100711.69;;;19.17;57.83
49461;BME280;35355;49.198;-0.368;2023-07-16T05:56:57;100717.56;;;19.24;58.34
49461;BME280;35355;49.198;-0.368;2023-07-16T05:59:23;100735.28;;;19.23;58.81
49461;BME280;35355;49.198;-0.368;2023-07-16T06:01:48;100728.75;;;19.19;59.22
49461;BME280;35355;49.198;-0.368;2023-07-16T06:04:14;100732.50;;;19.14;59.85
49461;BME280;35355;49.198;-0.368;2023-07-16T06:06:39;100732.69;;;19.18;60.07
49461;BME280;35355;49.198;-0.368;2023-07-16T06:09:05;100735.25;;;19.14;60.42
49461;BME280;35355;49.198;-0.368;2023-07-16T06:11:30;100734.59;;;19.08;60.69
49461;BME280;35355;49.198;-0.368;2023-07-16T06:13:56;100738.16;;;19.00;60.96
49461;BME280;35355;49.198;-0.368;2023-07-16T06:16:21;100734.88;;;18.98;61.26
49461;BME280;35355;49.198;-0.368;2023-07-16T06:18:46;100729.63;;;18.88;61.65
49461;BME280;35355;49.198;-0.368;2023-07-16T06:21:12;100743.13;;;18.89;61.98
49461;BME280;35355;49.198;-0.368;2023-07-16T06:23:38;100750.13;;;18.87;62.36
49461;BME280;35355;49.198;-0.368;2023-07-16T06:26:03;100753.78;;;18.82;62.58
49461;BME280;35355;49.198;-0.368;2023-07-16T06:28:29;100757.88;;;18.85;62.67
49461;BME280;35355;49.198;-0.368;2023-07-16T06:30:54;100759.56;;;18.86;62.92
49461;BME280;35355;49.198;-0.368;2023-07-16T06:33:20;100762.81;;;18.88;62.94
49461;BME280;35355;49.198;-0.368;2023-07-16T06:35:47;100763.81;;;18.92;63.31
49461;BME280;35355;49.198;-0.368;2023-07-16T06:38:14;100771.03;;;19.02;63.26
49461;BME280;35355;49.198;-0.368;2023-07-16T06:40:45;100770.38;;;19.05;63.65
49461;BME280;35355;49.198;-0.368;2023-07-16T06:43:11;100781.28;;;19.10;63.68
49461;BME280;35355;49.198;-0.368;2023-07-16T06:45:37;100770.88;;;19.07;63.66
49461;BME280;35355;49.198;-0.368;2023-07-16T06:48:02;100787.47;;;19.07;63.66
49461;BME280;35355;49.198;-0.368;2023-07-16T06:50:28;100785.38;;;19.13;63.82
49461;BME280;35355;49.198;-0.368;2023-07-16T06:52:54;100776.44;;;19.16;63.86
49461;BME280;35355;49.198;-0.368;2023-07-16T06:55:19;100786.75;;;19.24;63.89
49461;BME280;35355;49.198;-0.368;2023-07-16T06:57:44;100787.56;;;19.24;64.05
49461;BME280;35355;49.198;-0.368;2023-07-16T07:00:10;100797.84;;;19.33;64.04
49461;BME280;35355;49.198;-0.368;2023-07-16T07:02:36;100786.94;;;19.36;64.01
49461;BME280;35355;49.198;-0.368;2023-07-16T07:05:02;100785.81;;;19.37;64.18
49461;BME280;35355;49.198;-0.368;2023-07-16T07:07:27;100765.75;;;19.32;64.09
49461;BME280;35355;49.198;-0.368;2023-07-16T07:09:52;100782.25;;;19.45;64.14
49461;BME280;35355;49.198;-0.368;2023-07-16T07:12:18;100795.44;;;19.49;64.04
49461;BME280;35355;49.198;-0.368;2023-07-16T07:14:43;100794.97;;;19.46;64.20
49461;BME280;35355;49.198;-0.368;2023-07-16T07:17:09;100799.84;;;19.50;64.14
49461;BME280;35355;49.198;-0.368;2023-07-16T07:19:34;100807.84;;;19.51;64.23
49461;BME280;35355;49.198;-0.368;2023-07-16T07:22:00;100792.50;;;19.45;64.09
49461;BME280;35355;49.198;-0.368;2023-07-16T07:24:25;100802.94;;;19.48;63.78
49461;BME280;35355;49.198;-0.368;2023-07-16T07:26:50;100808.81;;;19.46;64.06
49461;BME280;35355;49.198;-0.368;2023-07-16T07:29:16;100810.28;;;19.53;64.16
49461;BME280;35355;49.198;-0.368;2023-07-16T07:31:41;100806.53;;;19.57;64.20
49461;BME280;35355;49.198;-0.368;2023-07-16T07:34:06;100809.50;;;19.61;64.07
49461;BME280;35355;49.198;-0.368;2023-07-16T07:36:32;100813.59;;;19.63;64.02
49461;BME280;35355;49.198;-0.368;2023-07-16T07:38:57;100805.44;;;19.67;64.17
49461;BME280;35355;49.198;-0.368;2023-07-16T07:41:23;100819.13;;;19.72;63.92
49461;BME280;35355;49.198;-0.368;2023-07-16T07:43:48;100827.13;;;19.74;64.03
49461;BME280;35355;49.198;-0.368;2023-07-16T07:46:14;100827.28;;;19.77;63.99
49461;BME280;35355;49.198;-0.368;2023-07-16T07:48:39;100827.81;;;19.79;63.68
49461;BME280;35355;49.198;-0.368;2023-07-16T07:51:04;100828.31;;;19.82;63.70
49461;BME280;35355;49.198;-0.368;2023-07-16T07:53:31;100833.34;;;19.79;63.72
49461;BME280;35355;49.198;-0.368;2023-07-16T07:55:56;100833.53;;;19.83;63.79
49461;BME280;35355;49.198;-0.368;2023-07-16T07:58:22;100837.91;;;19.84;63.70
49461;BME280;35355;49.198;-0.368;2023-07-16T08:00:48;100838.75;;;19.85;63.78
49461;BME280;35355;49.198;-0.368;2023-07-16T08:03:13;100840.22;;;19.82;64.13
49461;BME280;35355;49.198;-0.368;2023-07-16T08:05:39;100844.97;;;19.90;64.17
49461;BME280;35355;49.198;-0.368;2023-07-16T08:08:04;100847.09;;;19.93;63.82
49461;BME280;35355;49.198;-0.368;2023-07-16T08:10:30;100844.63;;;19.92;63.65
49461;BME280;35355;49.198;-0.368;2023-07-16T08:12:55;100839.91;;;19.92;63.61
49461;BME280;35355;49.198;-0.368;2023-07-16T08:15:20;100841.38;;;19.98;63.30
49461;BME280;35355;49.198;-0.368;2023-07-16T08:17:46;100849.03;;;20.02;62.85
49461;BME280;35355;49.198;-0.368;2023-07-16T08:20:13;100856.22;;;20.03;62.65
49461;BME280;35355;49.198;-0.368;2023-07-16T08:22:38;100848.88;;;19.98;62.44
49461;BME280;35355;49.198;-0.368;2023-07-16T08:25:05;100858.66;;;20.04;62.23
49461;BME280;35355;49.198;-0.368;2023-07-16T08:27:31;100854.78;;;20.05;62.32
49461;BME280;35355;49.198;-0.368;2023-07-16T08:29:57;100854.28;;;20.12;62.33
49461;BME280;35355;49.198;-0.368;2023-07-16T08:32:23;100858.38;;;20.14;62.24
49461;BME280;35355;49.198;-0.368;2023-07-16T08:34:48;100852.81;;;20.14;62.23
49461;BME280;35355;49.198;-0.368;2023-07-16T08:37:14;100862.59;;;20.21;61.99
49461;BME280;35355;49.198;-0.368;2023-07-16T08:39:39;100877.31;;;20.30;61.98
49461;BME280;35355;49.198;-0.368;2023-07-16T08:42:05;100871.75;;;20.30;61.39
49461;BME280;35355;49.198;-0.368;2023-07-16T08:44:31;100871.91;;;20.33;61.47
49461;BME280;35355;49.198;-0.368;2023-07-16T08:46:57;100872.06;;;20.37;61.58
49461;BME280;35355;49.198;-0.368;2023-07-16T08:49:23;100876.16;;;20.40;61.26
49461;BME280;35355;49.198;-0.368;2023-07-16T08:51:51;100860.19;;;20.37;61.20
49461;BME280;35355;49.198;-0.368;2023-07-16T08:54:19;100867.69;;;20.45;61.11
49461;BME280;35355;49.198;-0.368;2023-07-16T08:56:45;100859.06;;;20.46;60.94
49461;BME280;35355;49.198;-0.368;2023-07-16T08:59:11;100872.72;;;20.51;60.98
49461;BME280;35355;49.198;-0.368;2023-07-16T09:01:37;100852.66;;;20.55;60.63
49461;BME280;35355;49.198;-0.368;2023-07-16T09:04:03;100860.00;;;20.59;60.38
49461;BME280;35355;49.198;-0.368;2023-07-16T09:06:29;100855.66;;;20.67;60.29
49461;BME280;35355;49.198;-0.368;2023-07-16T09:08:55;100855.66;;;20.76;60.43
49461;BME280;35355;49.198;-0.368;2023-07-16T09:11:21;100855.91;;;20.92;60.10
49461;BME280;35355;49.198;-0.368;2023-07-16T09:13:48;100859.19;;;21.02;59.73
49461;BME280;35355;49.198;-0.368;2023-07-16T09:16:14;100866.53;;;21.07;59.55
49461;BME280;35355;49.198;-0.368;2023-07-16T09:18:42;100869.09;;;21.12;59.52
49461;BME280;35355;49.198;-0.368;2023-07-16T09:21:07;100866.47;;;21.25;59.31
49461;BME280;35355;49.198;-0.368;2023-07-16T09:23:33;100861.69;;;21.34;58.89
49461;BME280;35355;49.198;-0.368;2023-07-16T09:25:58;100854.38;;;21.29;58.24
49461;BME280;35355;49.198;-0.368;2023-07-16T09:28:24;100869.03;;;21.38;58.23
49461;BME280;35355;49.198;-0.368;2023-07-16T09:30:50;100869.50;;;21.41;57.97
49461;BME280;35355;49.198;-0.368;2023-07-16T09:33:21;100860.69;;;21.38;57.94
49461;BME280;35355;49.198;-0.368;2023-07-16T09:35:49;100868.03;;;21.43;57.39
49461;BME280;35355;49.198;-0.368;2023-07-16T09:38:15;100873.41;;;21.48;57.44
49461;BME280;35355;49.198;-0.368;2023-07-16T09:40:41;100873.91;;;21.50;57.29
49461;BME280;35355;49.198;-0.368;2023-07-16T09:43:11;100870.31;;;21.50;56.89
49461;BME280;35355;49.198;-0.368;2023-07-16T09:45:37;100878.63;;;21.50;56.82
49461;BME280;35355;49.198;-0.368;2023-07-16T09:48:03;100870.63;;;21.57;56.68
49461;BME280;35355;49.198;-0.368;2023-07-16T09:50:31;100879.09;;;21.61;57.52
49461;BME280;35355;49.198;-0.368;2023-07-16T09:52:57;100870.25;;;21.67;56.87
49461;BME280;35355;49.198;-0.368;2023-07-16T09:55:25;100860.09;;;21.71;57.20
49461;BME280;35355;49.198;-0.368;2023-07-16T09:57:55;100873.47;;;21.78;56.98
49461;BME280;35355;49.198;-0.368;2023-07-16T10:00:23;100870.16;;;21.85;55.95
49461;BME280;35355;49.198;-0.368;2023-07-16T10:02:50;100869.81;;;21.86;55.59
49461;BME280;35355;49.198;-0.368;2023-07-16T10:05:18;100862.78;;;21.89;55.51
49461;BME280;35355;49.198;-0.368;2023-07-16T10:07:52;100863.63;;;21.89;56.04
49461;BME280;35355;49.198;-0.368;2023-07-16T10:10:18;100871.41;;;21.96;55.36
49461;BME280;35355;49.198;-0.368;2023-07-16T10:12:55;100863.56;;;21.98;55.17
49461;BME280;35355;49.198;-0.368;2023-07-16T10:15:26;100858.59;;;22.04;54.29
49461;BME280;35355;49.198;-0.368;2023-07-16T10:17:52;100862.97;;;22.14;54.40
49461;BME280;35355;49.198;-0.368;2023-07-16T10:22:55;100869.72;;;22.34;53.90
49461;BME280;35355;49.198;-0.368;2023-07-16T10:27:47;100863.34;;;22.54;53.75
49461;BME280;35355;49.198;-0.368;2023-07-16T10:30:13;100865.56;;;22.61;53.75
49461;BME280;35355;49.198;-0.368;2023-07-16T10:32:40;100864.34;;;22.71;53.24
49461;BME280;35355;49.198;-0.368;2023-07-16T10:35:06;100869.22;;;22.74;52.45
49461;BME280;35355;49.198;-0.368;2023-07-16T10:37:34;100869.91;;;22.71;52.06
49461;BME280;35355;49.198;-0.368;2023-07-16T10:40:01;100877.22;;;22.75;51.29
49461;BME280;35355;49.198;-0.368;2023-07-16T10:42:28;100879.53;;;22.73;52.11
49461;BME280;35355;49.198;-0.368;2023-07-16T10:44:57;100870.38;;;22.73;51.44
49461;BME280;35355;49.198;-0.368;2023-07-16T10:47:24;100885.91;;;22.74;51.06
49461;BME280;35355;49.198;-0.368;2023-07-16T10:49:53;100883.22;;;22.65;51.19
49461;BME280;35355;49.198;-0.368;2023-07-16T10:52:20;100897.66;;;22.58;50.89
49461;BME280;35355;49.198;-0.368;2023-07-16T10:54:46;100886.25;;;22.51;50.19
49461;BME280;35355;49.198;-0.368;2023-07-16T10:57:13;100889.44;;;22.41;50.23
49461;BME280;35355;49.198;-0.368;2023-07-16T10:59:39;100884.25;;;22.31;49.86
49461;BME280;35355;49.198;-0.368;2023-07-16T11:02:10;100885.75;;;22.28;50.42
49461;BME280;35355;49.198;-0.368;2023-07-16T11:04:36;100889.34;;;22.29;50.30
49461;BME280;35355;49.198;-0.368;2023-07-16T11:07:10;100886.78;;;22.23;50.88
49461;BME280;35355;49.198;-0.368;2023-07-16T11:09:47;100872.88;;;22.23;51.36
49461;BME280;35355;49.198;-0.368;2023-07-16T11:12:14;100879.38;;;22.28;51.01
49461;BME280;35355;49.198;-0.368;2023-07-16T11:14:47;100869.75;;;22.25;50.93
49461;BME280;35355;49.198;-0.368;2023-07-16T11:17:14;100890.66;;;22.31;50.90
49461;BME280;35355;49.198;-0.368;2023-07-16T11:19:40;100893.13;;;22.33;50.86
49461;BME280;35355;49.198;-0.368;2023-07-16T11:22:08;100896.22;;;22.31;50.61
49461;BME280;35355;49.198;-0.368;2023-07-16T11:24:44;100900.19;;;22.21;50.84
49461;BME280;35355;49.198;-0.368;2023-07-16T11:27:20;100899.44;;;22.12;51.08
49461;BME280;35355;49.198;-0.368;2023-07-16T11:29:56;100887.50;;;22.12;50.56
49461;BME280;35355;49.198;-0.368;2023-07-16T11:32:32;100899.22;;;22.17;50.95
49461;BME280;35355;49.198;-0.368;2023-07-16T11:34:59;100884.53;;;22.17;50.71
49461;BME280;35355;49.198;-0.368;2023-07-16T11:37:26;100899.50;;;22.24;50.74
49461;BME280;35355;49.198;-0.368;2023-07-16T11:39:55;100893.75;;;22.30;51.00
49461;BME280;35355;49.198;-0.368;2023-07-16T11:42:31;100901.63;;;22.28;51.05
49461;BME280;35355;49.198;-0.368;2023-07-16T11:44:58;100901.28;;;22.29;49.81
49461;BME280;35355;49.198;-0.368;2023-07-16T11:47:24;100900.81;;;22.27;49.54
49461;BME280;35355;49.198;-0.368;2023-07-16T11:49:50;100898.38;;;22.25;49.96
49461;BME280;35355;49.198;-0.368;2023-07-16T11:52:26;100910.44;;;22.30;49.71
49461;BME280;35355;49.198;-0.368;2023-07-16T11:54:52;100913.06;;;22.35;49.88
49461;BME280;35355;49.198;-0.368;2023-07-16T11:57:18;100889.81;;;22.31;50.39
49461;BME280;35355;49.198;-0.368;2023-07-16T11:59:43;100880.97;;;22.37;49.33
49461;BME280;35355;49.198;-0.368;2023-07-16T12:02:09;100899.75;;;22.40;49.64
49461;BME280;35355;49.198;-0.368;2023-07-16T12:04:35;100899.91;;;22.44;49.24
49461;BME280;35355;49.198;-0.368;2023-07-16T12:07:00;100905.94;;;22.46;48.79
49461;BME280;35355;49.198;-0.368;2023-07-16T12:09:25;100908.72;;;22.46;49.18
49461;BME280;35355;49.198;-0.368;2023-07-16T12:11:51;100892.03;;;22.46;49.08
49461;BME280;35355;49.198;-0.368;2023-07-16T12:14:16;100896.56;;;22.51;49.41
49461;BME280;35355;49.198;-0.368;2023-07-16T12:16:42;100896.63;;;22.63;49.83
49461;BME280;35355;49.198;-0.368;2023-07-16T12:19:09;100898.66;;;22.75;49.62
49461;BME280;35355;49.198;-0.368;2023-07-16T12:21:35;100889.44;;;22.83;50.10
49461;BME280;35355;49.198;-0.368;2023-07-16T12:24:01;100897.69;;;22.92;48.98
49461;BME280;35355;49.198;-0.368;2023-07-16T12:26:26;100899.44;;;22.97;48.84
49461;BME280;35355;49.198;-0.368;2023-07-16T12:28:52;100899.09;;;22.98;48.13
49461;BME280;35355;49.198;-0.368;2023-07-16T12:31:17;100897.81;;;22.95;47.87
49461;BME280;35355;49.198;-0.368;2023-07-16T12:33:43;100896.91;;;22.91;47.90
49461;BME280;35355;49.198;-0.368;2023-07-16T12:36:09;100898.91;;;22.82;47.84
49461;BME280;35355;49.198;-0.368;2023-07-16T12:38:34;100896.81;;;22.79;47.84
49461;BME280;35355;49.198;-0.368;2023-07-16T12:41:00;100913.25;;;22.72;47.65
49461;BME280;35355;49.198;-0.368;2023-07-16T12:43:25;100903.03;;;22.64;48.31
49461;BME280;35355;49.198;-0.368;2023-07-16T12:45:51;100904.97;;;22.63;48.46
49461;BME280;35355;49.198;-0.368;2023-07-16T12:48:16;100912.06;;;22.60;48.61
49461;BME280;35355;49.198;-0.368;2023-07-16T12:50:42;100907.28;;;22.61;48.83